sensor_id;sensor_type;location;lat;lon;timestamp;temperature;humidity
21602;DHT22;10963;50.934;4.668;2023-07-22T00:00:29;15.80;99.90
21602;DHT22;10963;50.934;4.668;2023-07-22T00:02:55;15.80;99.90
21602;DHT22;10963;50.934;4.668;2023-07-22T00:05:20;15.80;99.90
21602;DHT22;10963;50.934;4.668;2023-07-22T00:07:50;15.80;99.90
21602;DHT22;10963;50.934;4.668;2023-07-22T00:10:18;15.90;99.90
21602;DHT22;10963;50.934;4.668;2023-07-22T00:12:47;15.90;99.90
21602;DHT22;10963;50.934;4.668;2023-07-22T00:15:12;15.90;99.90
21602;DHT22;10963;50.934;4.668;2023-07-22T00:17:43;15.90;99.90
21602;DHT22;10963;50.934;4.668;2023-07-22T00:20:09;15.90;99.90
21602;DHT22;10963;50.934;4.668;2023-07-22T00:22:39;15.80;99.90
21602;DHT22;10963;50.934;4.668;2023-07-22T00:25:07;15.90;99.90
21602;DHT22;10963;50.934;4.668;2023-07-22T00:27:38;15.90;99.90
21602;DHT22;10963;50.934;4.668;2023-07-22T00:30:07;15.90;99.90
21602;DHT22;10963;50.934;4.668;2023-07-22T00:32:36;16.00;99.90
21602;DHT22;10963;50.934;4.668;2023-07-22T00:35:08;16.10;99.90
21602;DHT22;10963;50.934;4.668;2023-07-22T00:37:37;16.10;99.90
21602;DHT22;10963;50.934;4.668;2023-07-22T00:40:03;16.00;99.90
21602;DHT22;10963;50.934;4.668;2023-07-22T00:42:31;16.20;99.90
21602;DHT22;10963;50.934;4.668;2023-07-22T00:45:02;16.20;99.90
21602;DHT22;10963;50.934;4.668;2023-07-22T00:47:27;16.20;99.90
21602;DHT22;10963;50.934;4.668;2023-07-22T00:49:54;16.20;99.90
21602;DHT22;10963;50.934;4.668;2023-07-22T00:52:20;16.10;99.90
21602;DHT22;10963;50.934;4.668;2023-07-22T00:54:45;16.10;99.90
21602;DHT22;10963;50.934;4.668;2023-07-22T00:57:14;16.20;99.90
21602;DHT22;10963;50.934;4.668;2023-07-22T00:59:40;16.20;99.90
21602;DHT22;10963;50.934;4.668;2023-07-22T01:02:10;16.20;99.90
21602;DHT22;10963;50.934;4.668;2023-07-22T01:04:37;16.30;99.90
21602;DHT22;10963;50.934;4.668;2023-07-22T01:07:06;16.30;99.90
21602;DHT22;10963;50.934;4.668;2023-07-22T01:09:42;16.30;99.90
21602;DHT22;10963;50.934;4.668;2023-07-22T01:12:10;16.20;99.90
21602;DHT22;10963;50.934;4.668;2023-07-22T01:14:36;16.30;99.90
21602;DHT22;10963;50.934;4.668;2023-07-22T01:17:04;16.30;99.90
21602;DHT22;10963;50.934;4.668;2023-07-22T01:19:31;16.50;99.90
21602;DHT22;10963;50.934;4.668;2023-07-22T01:22:03;16.50;99.90
21602;DHT22;10963;50.934;4.668;2023-07-22T01:24:36;16.60;99.90
21602;DHT22;10963;50.934;4.668;2023-07-22T01:27:02;16.60;99.90
21602;DHT22;10963;50.934;4.668;2023-07-22T01:29:29;16.60;99.90
21602;DHT22;10963;50.934;4.668;2023-07-22T01:31:57;16.60;99.90
21602;DHT22;10963;50.934;4.668;2023-07-22T01:34:25;16.60;99.90
21602;DHT22;10963;50.934;4.668;2023-07-22T01:36:53;16.60;99.90
21602;DHT22;10963;50.934;4.668;2023-07-22T01:39:19;16.50;99.90
21602;DHT22;10963;50.934;4.668;2023-07-22T01:41:45;16.60;99.90
21602;DHT22;10963;50.934;4.668;2023-07-22T01:44:11;16.60;99.90
21602;DHT22;10963;50.934;4.668;2023-07-22T01:46:37;16.60;99.90
21602;DHT22;10963;50.934;4.668;2023-07-22T01:49:10;16.70;99.90
21602;DHT22;10963;50.934;4.668;2023-07-22T01:51:39;16.70;99.90
21602;DHT22;10963;50.934;4.668;2023-07-22T01:54:10;16.70;99.90
21602;DHT22;10963;50.934;4.668;2023-07-22T01:56:39;16.70;99.90
21602;DHT22;10963;50.934;4.668;2023-07-22T01:59:09;16.70;99.90
21602;DHT22;10963;50.934;4.668;2023-07-22T02:01:37;16.70;99.90
21602;DHT22;10963;50.934;4.668;2023-07-22T02:04:03;16.70;99.90
21602;DHT22;10963;50.934;4.668;2023-07-22T02:06:29;16.70;99.90
21602;DHT22;10963;50.934;4.668;2023-07-22T02:08:54;16.70;99.90
21602;DHT22;10963;50.934;4.668;2023-07-22T02:11:21;16.60;99.90
21602;DHT22;10963;50.934;4.668;2023-07-22T02:13:47;16.60;99.90
21602;DHT22;10963;50.934;4.668;2023-07-22T02:16:15;16.60;99.90
21602;DHT22;10963;50.934;4.668;2023-07-22T02:18:44;16.50;99.90
21602;DHT22;10963;50.934;4.668;2023-07-22T02:21:10;16.40;99.90
21602;DHT22;10963;50.934;4.668;2023-07-22T02:23:36;16.30;99.90
21602;DHT22;10963;50.934;4.668;2023-07-22T02:26:04;16.30;99.90
21602;DHT22;10963;50.934;4.668;2023-07-22T02:28:30;16.20;99.90
21602;DHT22;10963;50.934;4.668;2023-07-22T02:30:55;16.20;99.90
21602;DHT22;10963;50.934;4.668;2023-07-22T02:33:29;16.10;99.90
21602;DHT22;10963;50.934;4.668;2023-07-22T02:35:57;16.10;99.90
21602;DHT22;10963;50.934;4.668;2023-07-22T02:38:23;16.10;99.90
21602;DHT22;10963;50.934;4.668;2023-07-22T02:40:49;16.00;99.90
21602;DHT22;10963;50.934;4.668;2023-07-22T02:43:14;16.00;99.90
21602;DHT22;10963;50.934;4.668;2023-07-22T02:45:41;16.00;99.90
21602;DHT22;10963;50.934;4.668;2023-07-22T02:48:09;15.90;99.90
21602;DHT22;10963;50.934;4.668;2023-07-22T02:50:37;15.80;99.90
21602;DHT22;10963;50.934;4.668;2023-07-22T02:53:02;15.70;99.90
21602;DHT22;10963;50.934;4.668;2023-07-22T02:55:31;15.60;99.90
21602;DHT22;10963;50.934;4.668;2023-07-22T02:57:59;15.60;99.90
21602;DHT22;10963;50.934;4.668;2023-07-22T03:00:24;15.60;99.90
21602;DHT22;10963;50.934;4.668;2023-07-22T03:02:55;15.70;99.90
21602;DHT22;10963;50.934;4.668;2023-07-22T03:05:32;15.70;99.90
21602;DHT22;10963;50.934;4.668;2023-07-22T03:07:59;15.70;99.90
21602;DHT22;10963;50.934;4.668;2023-07-22T03:10:25;15.60;99.90
21602;DHT22;10963;50.934;4.668;2023-07-22T03:12:51;15.60;99.90
21602;DHT22;10963;50.934;4.668;2023-07-22T03:15:23;15.60;99.90
21602;DHT22;10963;50.934;4.668;2023-07-22T03:17:51;15.60;99.90
21602;DHT22;10963;50.934;4.668;2023-07-22T03:20:17;15.50;99.90
21602;DHT22;10963;50.934;4.668;2023-07-22T03:22:46;15.40;99.90
21602;DHT22;10963;50.934;4.668;2023-07-22T03:25:14;15.30;99.90
21602;DHT22;10963;50.934;4.668;2023-07-22T03:27:42;15.40;99.90
21602;DHT22;10963;50.934;4.668;2023-07-22T03:30:11;15.40;99.90
21602;DHT22;10963;50.934;4.668;2023-07-22T03:32:37;15.50;99.90
21602;DHT22;10963;50.934;4.668;2023-07-22T03:35:03;15.50;99.90
21602;DHT22;10963;50.934;4.668;2023-07-22T03:37:29;15.50;99.90
21602;DHT22;10963;50.934;4.668;2023-07-22T03:39:55;15.50;99.90
21602;DHT22;10963;50.934;4.668;2023-07-22T03:42:23;15.50;99.90
21602;DHT22;10963;50.934;4.668;2023-07-22T03:44:49;15.60;99.90
21602;DHT22;10963;50.934;4.668;2023-07-22T03:47:14;15.40;99.90
21602;DHT22;10963;50.934;4.668;2023-07-22T03:49:45;15.30;99.90
21602;DHT22;10963;50.934;4.668;2023-07-22T03:52:10;15.20;99.90
21602;DHT22;10963;50.934;4.668;2023-07-22T03:54:39;15.20;99.90
21602;DHT22;10963;50.934;4.668;2023-07-22T03:57:05;15.20;99.90
21602;DHT22;10963;50.934;4.668;2023-07-22T03:59:31;15.10;99.90
21602;DHT22;10963;50.934;4.668;2023-07-22T04:02:00;15.10;99.90
21602;DHT22;10963;50.934;4.668;2023-07-22T04:04:25;15.10;99.90
21602;DHT22;10963;50.934;4.668;2023-07-22T04:06:53;15.00;99.90
21602;DHT22;10963;50.934;4.668;2023-07-22T04:09:21;15.00;99.90
21602;DHT22;10963;50.934;4.668;2023-07-22T04:11:47;15.10;99.90
21602;DHT22;10963;50.934;4.668;2023-07-22T04:14:15;15.10;99.90
21602;DHT22;10963;50.934;4.668;2023-07-22T04:16:46;15.10;99.90
21602;DHT22;10963;50.934;4.668;2023-07-22T04:19:11;15.10;99.90
21602;DHT22;10963;50.934;4.668;2023-07-22T04:21:37;15.00;99.90
21602;DHT22;10963;50.934;4.668;2023-07-22T04:24:05;14.90;99.90
21602;DHT22;10963;50.934;4.668;2023-07-22T04:26:31;15.00;99.90
21602;DHT22;10963;50.934;4.668;2023-07-22T04:28:57;15.10;99.90
21602;DHT22;10963;50.934;4.668;2023-07-22T04:31:23;15.30;99.90
21602;DHT22;10963;50.934;4.668;2023-07-22T04:33:51;15.40;99.90
21602;DHT22;10963;50.934;4.668;2023-07-22T04:36:18;15.40;99.90
21602;DHT22;10963;50.934;4.668;2023-07-22T04:38:44;15.50;99.90
21602;DHT22;10963;50.934;4.668;2023-07-22T04:41:10;15.50;99.90
21602;DHT22;10963;50.934;4.668;2023-07-22T04:43:36;15.60;99.90
21602;DHT22;10963;50.934;4.668;2023-07-22T04:46:06;15.80;99.90
21602;DHT22;10963;50.934;4.668;2023-07-22T04:48:32;16.00;99.90
21602;DHT22;10963;50.934;4.668;2023-07-22T04:51:02;16.10;99.90
21602;DHT22;10963;50.934;4.668;2023-07-22T04:53:31;16.10;99.90
21602;DHT22;10963;50.934;4.668;2023-07-22T04:55:56;16.10;99.90
21602;DHT22;10963;50.934;4.668;2023-07-22T04:58:23;16.00;99.90
21602;DHT22;10963;50.934;4.668;2023-07-22T05:00:51;16.10;99.90
21602;DHT22;10963;50.934;4.668;2023-07-22T05:03:17;16.20;99.90
21602;DHT22;10963;50.934;4.668;2023-07-22T05:05:44;16.30;99.90
21602;DHT22;10963;50.934;4.668;2023-07-22T05:08:10;16.30;99.90
21602;DHT22;10963;50.934;4.668;2023-07-22T05:10:39;16.30;99.90
21602;DHT22;10963;50.934;4.668;2023-07-22T05:13:05;16.40;99.90
21602;DHT22;10963;50.934;4.668;2023-07-22T05:15:31;16.20;99.90
21602;DHT22;10963;50.934;4.668;2023-07-22T05:17:56;16.30;99.90
21602;DHT22;10963;50.934;4.668;2023-07-22T05:20:24;16.40;99.90
21602;DHT22;10963;50.934;4.668;2023-07-22T05:22:50;16.50;99.90
21602;DHT22;10963;50.934;4.668;2023-07-22T05:25:16;16.50;99.90
21602;DHT22;10963;50.934;4.668;2023-07-22T05:27:43;16.60;99.90
21602;DHT22;10963;50.934;4.668;2023-07-22T05:30:09;16.60;99.90
21602;DHT22;10963;50.934;4.668;2023-07-22T05:32:38;16.60;99.90
21602;DHT22;10963;50.934;4.668;2023-07-22T05:35:07;16.60;99.90
21602;DHT22;10963;50.934;4.668;2023-07-22T05:37:32;16.80;99.90
21602;DHT22;10963;50.934;4.668;2023-07-22T05:39:59;17.00;99.90
21602;DHT22;10963;50.934;4.668;2023-07-22T05:42:25;17.10;99.90
21602;DHT22;10963;50.934;4.668;2023-07-22T05:44:51;17.10;99.90
21602;DHT22;10963;50.934;4.668;2023-07-22T05:47:19;17.20;99.90
21602;DHT22;10963;50.934;4.668;2023-07-22T05:49:47;17.20;99.90
21602;DHT22;10963;50.934;4.668;2023-07-22T05:52:12;17.40;99.90
21602;DHT22;10963;50.934;4.668;2023-07-22T05:54:38;17.50;99.90
21602;DHT22;10963;50.934;4.668;2023-07-22T05:57:06;17.50;99.90
21602;DHT22;10963;50.934;4.668;2023-07-22T05:59:32;17.50;99.90
21602;DHT22;10963;50.934;4.668;2023-07-22T06:02:03;17.70;99.90
21602;DHT22;10963;50.934;4.668;2023-07-22T06:04:29;18.10;99.90
21602;DHT22;10963;50.934;4.668;2023-07-22T06:06:55;18.50;99.90
21602;DHT22;10963;50.934;4.668;2023-07-22T06:09:21;19.30;99.90
21602;DHT22;10963;50.934;4.668;2023-07-22T06:11:47;19.80;99.90
21602;DHT22;10963;50.934;4.668;2023-07-22T06:14:13;20.30;99.90
21602;DHT22;10963;50.934;4.668;2023-07-22T06:16:38;20.50;99.90
21602;DHT22;10963;50.934;4.668;2023-07-22T06:19:04;20.90;99.90
21602;DHT22;10963;50.934;4.668;2023-07-22T06:21:30;20.50;99.90
21602;DHT22;10963;50.934;4.668;2023-07-22T06:23:56;20.20;99.90
21602;DHT22;10963;50.934;4.668;2023-07-22T06:26:22;20.20;99.90
21602;DHT22;10963;50.934;4.668;2023-07-22T06:28:48;20.90;99.90
21602;DHT22;10963;50.934;4.668;2023-07-22T06:31:13;21.40;99.90
21602;DHT22;10963;50.934;4.668;2023-07-22T06:33:39;21.90;99.90
21602;DHT22;10963;50.934;4.668;2023-07-22T06:36:05;22.10;99.90
21602;DHT22;10963;50.934;4.668;2023-07-22T06:38:31;22.40;99.90
21602;DHT22;10963;50.934;4.668;2023-07-22T06:40:59;22.10;99.90
21602;DHT22;10963;50.934;4.668;2023-07-22T06:43:24;21.70;99.90
21602;DHT22;10963;50.934;4.668;2023-07-22T06:45:50;21.40;99.90
21602;DHT22;10963;50.934;4.668;2023-07-22T06:48:18;21.30;99.90
21602;DHT22;10963;50.934;4.668;2023-07-22T06:50:48;21.30;99.90
21602;DHT22;10963;50.934;4.668;2023-07-22T06:53:13;21.00;99.90
21602;DHT22;10963;50.934;4.668;2023-07-22T06:55:47;20.70;99.90
21602;DHT22;10963;50.934;4.668;2023-07-22T06:58:13;20.70;99.90
21602;DHT22;10963;50.934;4.668;2023-07-22T07:00:39;20.60;99.90
21602;DHT22;10963;50.934;4.668;2023-07-22T07:03:04;20.40;99.90
21602;DHT22;10963;50.934;4.668;2023-07-22T07:05:32;20.10;99.90
21602;DHT22;10963;50.934;4.668;2023-07-22T07:08:00;20.20;99.90
21602;DHT22;10963;50.934;4.668;2023-07-22T07:10:26;20.30;99.90
21602;DHT22;10963;50.934;4.668;2023-07-22T07:12:51;20.60;99.90
21602;DHT22;10963;50.934;4.668;2023-07-22T07:15:17;20.70;99.90
21602;DHT22;10963;50.934;4.668;2023-07-22T07:17:44;20.80;99.90
21602;DHT22;10963;50.934;4.668;2023-07-22T07:20:14;20.80;99.90
21602;DHT22;10963;50.934;4.668;2023-07-22T07:22:40;20.90;99.90
21602;DHT22;10963;50.934;4.668;2023-07-22T07:25:06;21.00;99.90
21602;DHT22;10963;50.934;4.668;2023-07-22T07:27:34;21.20;99.90
21602;DHT22;10963;50.934;4.668;2023-07-22T07:30:00;21.20;99.90
21602;DHT22;10963;50.934;4.668;2023-07-22T07:32:25;21.10;99.90
21602;DHT22;10963;50.934;4.668;2023-07-22T07:34:56;21.40;99.90
21602;DHT22;10963;50.934;4.668;2023-07-22T07:37:22;21.70;99.90
21602;DHT22;10963;50.934;4.668;2023-07-22T07:39:48;21.60;99.90
21602;DHT22;10963;50.934;4.668;2023-07-22T07:42:14;21.50;99.90
21602;DHT22;10963;50.934;4.668;2023-07-22T07:44:40;21.60;99.90
21602;DHT22;10963;50.934;4.668;2023-07-22T07:47:06;21.90;99.90
21602;DHT22;10963;50.934;4.668;2023-07-22T07:49:34;21.60;99.90
21602;DHT22;10963;50.934;4.668;2023-07-22T07:51:59;21.60;99.90
21602;DHT22;10963;50.934;4.668;2023-07-22T07:54:28;21.90;99.90
21602;DHT22;10963;50.934;4.668;2023-07-22T07:56:53;21.90;99.90
21602;DHT22;10963;50.934;4.668;2023-07-22T07:59:21;22.20;99.90
21602;DHT22;10963;50.934;4.668;2023-07-22T08:01:47;21.70;99.90
21602;DHT22;10963;50.934;4.668;2023-07-22T08:04:14;21.20;99.90
21602;DHT22;10963;50.934;4.668;2023-07-22T08:06:42;21.10;99.90
21602;DHT22;10963;50.934;4.668;2023-07-22T08:09:08;21.10;99.90
21602;DHT22;10963;50.934;4.668;2023-07-22T08:11:37;20.90;99.90
21602;DHT22;10963;50.934;4.668;2023-07-22T08:14:05;20.70;99.90
21602;DHT22;10963;50.934;4.668;2023-07-22T08:16:33;20.60;99.90
21602;DHT22;10963;50.934;4.668;2023-07-22T08:19:03;20.60;99.90
21602;DHT22;10963;50.934;4.668;2023-07-22T08:21:32;20.40;99.90
21602;DHT22;10963;50.934;4.668;2023-07-22T08:23:57;20.60;99.90
21602;DHT22;10963;50.934;4.668;2023-07-22T08:26:23;20.60;99.90
21602;DHT22;10963;50.934;4.668;2023-07-22T08:28:49;20.90;99.90
21602;DHT22;10963;50.934;4.668;2023-07-22T08:31:15;21.00;99.90
21602;DHT22;10963;50.934;4.668;2023-07-22T08:33:40;21.30;99.90
21602;DHT22;10963;50.934;4.668;2023-07-22T08:36:09;21.60;99.90
21602;DHT22;10963;50.934;4.668;2023-07-22T08:38:34;21.90;99.90
21602;DHT22;10963;50.934;4.668;2023-07-22T08:41:02;22.00;99.90
21602;DHT22;10963;50.934;4.668;2023-07-22T08:43:29;22.50;99.90
21602;DHT22;10963;50.934;4.668;2023-07-22T08:46:02;23.10;99.90
21602;DHT22;10963;50.934;4.668;2023-07-22T08:48:31;23.20;99.90
21602;DHT22;10963;50.934;4.668;2023-07-22T08:53:29;23.00;99.90
21602;DHT22;10963;50.934;4.668;2023-07-22T08:55:56;23.20;99.90
21602;DHT22;10963;50.934;4.668;2023-07-22T08:58:24;23.50;99.90
21602;DHT22;10963;50.934;4.668;2023-07-22T09:00:50;23.40;99.90
21602;DHT22;10963;50.934;4.668;2023-07-22T09:03:19;23.30;99.90
21602;DHT22;10963;50.934;4.668;2023-07-22T09:05:45;23.00;99.90
21602;DHT22;10963;50.934;4.668;2023-07-22T09:08:11;23.40;99.90
21602;DHT22;10963;50.934;4.668;2023-07-22T09:10:38;23.80;99.90
21602;DHT22;10963;50.934;4.668;2023-07-22T09:13:07;24.20;99.90
21602;DHT22;10963;50.934;4.668;2023-07-22T09:15:36;24.30;99.90
21602;DHT22;10963;50.934;4.668;2023-07-22T09:18:05;24.70;99.90
21602;DHT22;10963;50.934;4.668;2023-07-22T09:20:34;24.10;99.90
21602;DHT22;10963;50.934;4.668;2023-07-22T09:23:00;24.00;99.90
21602;DHT22;10963;50.934;4.668;2023-07-22T09:25:27;24.20;99.90
21602;DHT22;10963;50.934;4.668;2023-07-22T09:27:55;24.50;99.90
21602;DHT22;10963;50.934;4.668;2023-07-22T09:30:31;24.40;99.90
21602;DHT22;10963;50.934;4.668;2023-07-22T09:32:59;24.40;99.90
21602;DHT22;10963;50.934;4.668;2023-07-22T09:35:27;25.10;99.90
21602;DHT22;10963;50.934;4.668;2023-07-22T09:37:56;26.10;99.90
21602;DHT22;10963;50.934;4.668;2023-07-22T09:40:26;26.40;99.90
21602;DHT22;10963;50.934;4.668;2023-07-22T09:42:57;26.40;99.90
21602;DHT22;10963;50.934;4.668;2023-07-22T09:45:31;26.50;99.90
21602;DHT22;10963;50.934;4.668;2023-07-22T09:47:59;25.50;99.90
21602;DHT22;10963;50.934;4.668;2023-07-22T09:50:26;26.00;99.90
21602;DHT22;10963;50.934;4.668;2023-07-22T09:52:57;26.40;99.90
21602;DHT22;10963;50.934;4.668;2023-07-22T09:55:32;26.50;99.90
21602;DHT22;10963;50.934;4.668;2023-07-22T09:57:58;26.10;99.90
21602;DHT22;10963;50.934;4.668;2023-07-22T10:00:31;26.20;99.90
21602;DHT22;10963;50.934;4.668;2023-07-22T10:03:01;26.00;99.90
21602;DHT22;10963;50.934;4.668;2023-07-22T10:05:32;26.60;99.90
21602;DHT22;10963;50.934;4.668;2023-07-22T10:07:59;27.20;99.90
21602;DHT22;10963;50.934;4.668;2023-07-22T10:10:34;27.40;97.80
21602;DHT22;10963;50.934;4.668;2023-07-22T10:13:00;27.80;95.80
21602;DHT22;10963;50.934;4.668;2023-07-22T10:15:32;28.20;94.40
21602;DHT22;10963;50.934;4.668;2023-07-22T10:18:07;27.90;95.10
21602;DHT22;10963;50.934;4.668;2023-07-22T10:20:34;27.20;95.20
21602;DHT22;10963;50.934;4.668;2023-07-22T10:23:04;28.00;93.90
21602;DHT22;10963;50.934;4.668;2023-07-22T10:25:35;28.10;94.00
21602;DHT22;10963;50.934;4.668;2023-07-22T10:28:04;28.90;91.90
21602;DHT22;10963;50.934;4.668;2023-07-22T10:30:31;28.70;91.10
21602;DHT22;10963;50.934;4.668;2023-07-22T10:33:01;28.10;90.20
21602;DHT22;10963;50.934;4.668;2023-07-22T10:43:15;27.00;89.70
21602;DHT22;10963;50.934;4.668;2023-07-22T10:45:43;26.80;90.50
21602;DHT22;10963;50.934;4.668;2023-07-22T10:48:15;26.40;90.30
21602;DHT22;10963;50.934;4.668;2023-07-22T10:50:51;26.30;90.90
21602;DHT22;10963;50.934;4.668;2023-07-22T11:06:33;28.10;87.20
21602;DHT22;10963;50.934;4.668;2023-07-22T11:08:59;28.70;86.00
21602;DHT22;10963;50.934;4.668;2023-07-22T11:11:44;29.20;83.00
21602;DHT22;10963;50.934;4.668;2023-07-22T11:14:17;27.90;83.50
21602;DHT22;10963;50.934;4.668;2023-07-22T11:16:45;27.50;84.50
21602;DHT22;10963;50.934;4.668;2023-07-22T11:19:14;27.30;85.80
21602;DHT22;10963;50.934;4.668;2023-07-22T11:21:41;27.60;84.30
21602;DHT22;10963;50.934;4.668;2023-07-22T11:24:09;27.80;83.00
21602;DHT22;10963;50.934;4.668;2023-07-22T11:26:35;27.70;83.80
21602;DHT22;10963;50.934;4.668;2023-07-22T11:29:03;27.70;83.40
21602;DHT22;10963;50.934;4.668;2023-07-22T11:34:00;27.10;84.00
21602;DHT22;10963;50.934;4.668;2023-07-22T11:36:27;26.30;85.70
21602;DHT22;10963;50.934;4.668;2023-07-22T11:38:53;25.90;88.60
21602;DHT22;10963;50.934;4.668;2023-07-22T11:41:20;25.90;89.00
21602;DHT22;10963;50.934;4.668;2023-07-22T11:43:48;25.80;86.90
21602;DHT22;10963;50.934;4.668;2023-07-22T11:46:19;25.90;88.70
21602;DHT22;10963;50.934;4.668;2023-07-22T11:48:52;25.70;90.00
21602;DHT22;10963;50.934;4.668;2023-07-22T11:51:21;26.00;90.70
21602;DHT22;10963;50.934;4.668;2023-07-22T11:53:54;25.90;90.60
21602;DHT22;10963;50.934;4.668;2023-07-22T11:56:28;25.60;91.30
21602;DHT22;10963;50.934;4.668;2023-07-22T11:58:57;26.00;90.10
21602;DHT22;10963;50.934;4.668;2023-07-22T12:01:23;26.00;90.30
21602;DHT22;10963;50.934;4.668;2023-07-22T12:03:55;25.80;90.70
21602;DHT22;10963;50.934;4.668;2023-07-22T12:06:25;26.00;90.90
21602;DHT22;10963;50.934;4.668;2023-07-22T12:08:52;26.10;90.40
21602;DHT22;10963;50.934;4.668;2023-07-22T12:11:19;26.30;88.50
21602;DHT22;10963;50.934;4.668;2023-07-22T12:13:47;26.10;87.80
21602;DHT22;10963;50.934;4.668;2023-07-22T12:16:23;25.60;89.50
21602;DHT22;10963;50.934;4.668;2023-07-22T12:18:49;25.50;90.70
21602;DHT22;10963;50.934;4.668;2023-07-22T12:21:15;25.40;89.30
21602;DHT22;10963;50.934;4.668;2023-07-22T12:23:42;25.50;90.90
21602;DHT22;10963;50.934;4.668;2023-07-22T12:26:10;25.50;89.60
21602;DHT22;10963;50.934;4.668;2023-07-22T12:28:38;25.80;89.90
21602;DHT22;10963;50.934;4.668;2023-07-22T12:31:07;26.00;88.20
21602;DHT22;10963;50.934;4.668;2023-07-22T12:33:32;25.60;88.60
21602;DHT22;10963;50.934;4.668;2023-07-22T12:35:58;25.20;89.50
21602;DHT22;10963;50.934;4.668;2023-07-22T12:38:24;25.60;88.80
21602;DHT22;10963;50.934;4.668;2023-07-22T12:40:50;25.60;88.40
21602;DHT22;10963;50.934;4.668;2023-07-22T12:43:15;25.70;90.00
21602;DHT22;10963;50.934;4.668;2023-07-22T12:45:41;25.70;89.00
21602;DHT22;10963;50.934;4.668;2023-07-22T12:48:07;25.90;85.50
21602;DHT22;10963;50.934;4.668;2023-07-22T12:50:36;26.10;84.30
21602;DHT22;10963;50.934;4.668;2023-07-22T12:53:02;26.20;84.40
21602;DHT22;10963;50.934;4.668;2023-07-22T12:55:28;25.50;86.10
21602;DHT22;10963;50.934;4.668;2023-07-22T12:57:54;25.50;86.80
21602;DHT22;10963;50.934;4.668;2023-07-22T13:00:20;25.20;87.00
21602;DHT22;10963;50.934;4.668;2023-07-22T13:02:47;25.40;87.80
21602;DHT22;10963;50.934;4.668;2023-07-22T13:05:14;25.50;86.70
21602;DHT22;10963;50.934;4.668;2023-07-22T13:07:40;25.50;85.30
21602;DHT22;10963;50.934;4.668;2023-07-22T13:10:11;25.50;86.30
21602;DHT22;10963;50.934;4.668;2023-07-22T13:12:44;25.60;87.40
21602;DHT22;10963;50.934;4.668;2023-07-22T13:15:10;25.50;86.20
21602;DHT22;10963;50.934;4.668;2023-07-22T13:17:36;25.60;88.30
21602;DHT22;10963;50.934;4.668;2023-07-22T13:20:03;25.70;86.80
21602;DHT22;10963;50.934;4.668;2023-07-22T13:22:32;25.70;86.20
21602;DHT22;10963;50.934;4.668;2023-07-22T13:24:58;25.70;87.20
21602;DHT22;10963;50.934;4.668;2023-07-22T13:27:24;25.80;86.30
21602;DHT22;10963;50.934;4.668;2023-07-22T13:29:49;25.80;84.90
21602;DHT22;10963;50.934;4.668;2023-07-22T13:32:15;25.90;85.50
21602;DHT22;10963;50.934;4.668;2023-07-22T13:34:41;26.10;85.20
21602;DHT22;10963;50.934;4.668;2023-07-22T13:37:06;26.20;84.90
21602;DHT22;10963;50.934;4.668;2023-07-22T13:39:32;26.40;82.50
21602;DHT22;10963;50.934;4.668;2023-07-22T13:41:59;26.20;81.90
21602;DHT22;10963;50.934;4.668;2023-07-22T13:44:24;25.70;81.00
21602;DHT22;10963;50.934;4.668;2023-07-22T13:46:50;25.50;83.90
21602;DHT22;10963;50.934;4.668;2023-07-22T13:49:16;25.90;84.30
21602;DHT22;10963;50.934;4.668;2023-07-22T13:51:43;26.20;83.10
21602;DHT22;10963;50.934;4.668;2023-07-22T13:54:11;26.40;84.70
21602;DHT22;10963;50.934;4.668;2023-07-22T13:56:37;26.30;81.60
21602;DHT22;10963;50.934;4.668;2023-07-22T13:59:02;25.90;82.90
21602;DHT22;10963;50.934;4.668;2023-07-22T14:01:32;25.50;84.00
21602;DHT22;10963;50.934;4.668;2023-07-22T14:03:58;25.80;84.60
21602;DHT22;10963;50.934;4.668;2023-07-22T14:06:26;25.90;84.00
21602;DHT22;10963;50.934;4.668;2023-07-22T14:08:54;25.90;84.60
21602;DHT22;10963;50.934;4.668;2023-07-22T14:11:22;26.10;82.70
21602;DHT22;10963;50.934;4.668;2023-07-22T14:13:50;26.20;83.90
21602;DHT22;10963;50.934;4.668;2023-07-22T14:16:21;26.30;83.50
21602;DHT22;10963;50.934;4.668;2023-07-22T14:18:46;26.00;83.10
21602;DHT22;10963;50.934;4.668;2023-07-22T14:21:12;25.90;84.30
21602;DHT22;10963;50.934;4.668;2023-07-22T14:23:38;25.70;83.30
21602;DHT22;10963;50.934;4.668;2023-07-22T14:26:04;25.40;84.00
21602;DHT22;10963;50.934;4.668;2023-07-22T14:28:32;25.20;85.00
21602;DHT22;10963;50.934;4.668;2023-07-22T14:30:58;25.10;84.90
21602;DHT22;10963;50.934;4.668;2023-07-22T14:33:23;24.70;86.60
21602;DHT22;10963;50.934;4.668;2023-07-22T14:35:52;24.40;87.60
21602;DHT22;10963;50.934;4.668;2023-07-22T14:38:18;24.20;89.30
21602;DHT22;10963;50.934;4.668;2023-07-22T14:40:46;24.10;89.80
21602;DHT22;10963;50.934;4.668;2023-07-22T14:43:14;24.10;90.40
21602;DHT22;10963;50.934;4.668;2023-07-22T14:45:39;24.10;90.20
21602;DHT22;10963;50.934;4.668;2023-07-22T14:48:05;24.10;90.40
21602;DHT22;10963;50.934;4.668;2023-07-22T14:50:33;24.20;90.60
21602;DHT22;10963;50.934;4.668;2023-07-22T14:53:03;24.20;90.70
21602;DHT22;10963;50.934;4.668;2023-07-22T14:55:30;24.10;91.10
21602;DHT22;10963;50.934;4.668;2023-07-22T14:57:55;24.00;91.20
21602;DHT22;10963;50.934;4.668;2023-07-22T15:00:23;23.90;91.40
21602;DHT22;10963;50.934;4.668;2023-07-22T15:02:49;23.90;91.40
21602;DHT22;10963;50.934;4.668;2023-07-22T15:05:19;24.10;91.60
21602;DHT22;10963;50.934;4.668;2023-07-22T15:07:45;24.50;91.90
21602;DHT22;10963;50.934;4.668;2023-07-22T15:10:13;24.90;91.20
21602;DHT22;10963;50.934;4.668;2023-07-22T15:12:40;25.00;91.20
21602;DHT22;10963;50.934;4.668;2023-07-22T15:15:11;25.20;91.10
21602;DHT22;10963;50.934;4.668;2023-07-22T15:17:37;25.30;91.00
21602;DHT22;10963;50.934;4.668;2023-07-22T15:20:05;25.30;90.10
21602;DHT22;10963;50.934;4.668;2023-07-22T15:22:31;25.30;90.50
21602;DHT22;10963;50.934;4.668;2023-07-22T15:24:59;25.20;90.60
21602;DHT22;10963;50.934;4.668;2023-07-22T15:27:25;25.40;90.70
21602;DHT22;10963;50.934;4.668;2023-07-22T15:29:53;25.50;90.70
21602;DHT22;10963;50.934;4.668;2023-07-22T15:32:19;25.50;90.40
21602;DHT22;10963;50.934;4.668;2023-07-22T15:34:44;25.80;90.50
21602;DHT22;10963;50.934;4.668;2023-07-22T15:37:10;25.80;90.40
21602;DHT22;10963;50.934;4.668;2023-07-22T15:39:36;25.60;90.00
21602;DHT22;10963;50.934;4.668;2023-07-22T15:42:01;25.60;90.60
21602;DHT22;10963;50.934;4.668;2023-07-22T15:44:27;25.20;90.70
21602;DHT22;10963;50.934;4.668;2023-07-22T15:46:54;25.20;90.90
21602;DHT22;10963;50.934;4.668;2023-07-22T15:49:19;25.20;91.00
21602;DHT22;10963;50.934;4.668;2023-07-22T15:51:45;25.10;91.30
21602;DHT22;10963;50.934;4.668;2023-07-22T15:54:11;25.10;90.60
21602;DHT22;10963;50.934;4.668;2023-07-22T15:56:39;24.90;90.80